createdAt,value
2018-02-21T00:01:21.887Z,74.73
2018-02-21T00:03:50.130Z,73.80
2018-02-21T00:06:18.381Z,81.40
2018-02-21T00:08:46.883Z,75.37
2018-02-21T00:11:15.137Z,77.20
2018-02-21T00:13:44.451Z,74.53
2018-02-21T00:16:12.782Z,77.53
2018-02-21T00:18:41.042Z,78.20
2018-02-21T00:21:09.292Z,76.97
2018-02-21T00:23:37.565Z,84.27
2018-02-21T00:26:05.830Z,84.43
2018-02-21T00:28:34.078Z,78.47
2018-02-21T00:31:02.349Z,76.33
2018-02-21T00:33:30.603Z,80.30
2018-02-21T00:35:59.618Z,80.93
2018-02-21T00:38:27.935Z,72.40
2018-02-21T00:40:56.182Z,77.90
2018-02-21T00:43:24.434Z,78.07
2018-02-21T00:45:52.790Z,77.00
2018-02-21T00:48:21.802Z,80.23
2018-02-21T00:50:50.050Z,69.13
2018-02-21T00:53:18.318Z,74.50
2018-02-21T00:55:47.337Z,69.87
2018-02-21T00:58:15.584Z,82.23
2018-02-21T01:00:43.913Z,83.30
2018-02-21T01:03:12.157Z,78.57
2018-02-21T01:05:40.405Z,71.53
2018-02-21T01:08:08.679Z,73.37
2018-02-21T01:10:38.474Z,72.60
2018-02-21T01:13:06.730Z,72.20
2018-02-21T01:15:34.990Z,77.00
2018-02-21T01:18:03.238Z,83.03
2018-02-21T01:20:31.478Z,80.00
2018-02-21T01:23:00.065Z,75.20
2018-02-21T01:25:28.313Z,79.10
2018-02-21T01:27:56.562Z,77.00
2018-02-21T01:30:24.828Z,81.83
2018-02-21T01:32:53.076Z,73.07
2018-02-21T01:35:21.509Z,73.13
2018-02-21T01:37:49.785Z,77.57
2018-02-21T01:40:18.034Z,74.77
2018-02-21T01:42:46.277Z,78.70
2018-02-21T01:45:14.862Z,77.40
2018-02-21T01:47:43.201Z,71.77
2018-02-21T01:50:12.210Z,71.90
2018-02-21T01:52:40.489Z,66.70
2018-02-21T01:55:08.730Z,72.53
2018-02-21T01:57:36.976Z,72.90
2018-02-21T02:00:05.394Z,76.27
2018-02-21T02:02:34.402Z,70.07
2018-02-21T02:05:03.421Z,71.20
2018-02-21T02:07:32.118Z,74.27
2018-02-21T02:10:00.369Z,72.60
2018-02-21T02:12:28.840Z,76.37
2018-02-21T02:14:57.870Z,77.50
2018-02-21T02:17:26.205Z,75.20
2018-02-21T02:19:55.225Z,70.67
2018-02-21T02:22:23.493Z,77.67
2018-02-21T02:24:51.738Z,78.17
2018-02-21T02:27:19.985Z,71.97
2018-02-21T02:29:48.449Z,72.80
2018-02-21T02:32:16.689Z,71.40
2018-02-21T02:34:44.938Z,78.03
2018-02-21T02:37:14.473Z,70.43
2018-02-21T02:39:55.263Z,73.67
2018-02-21T02:42:23.550Z,74.63
2018-02-21T02:44:51.789Z,68.63
2018-02-21T02:47:20.040Z,66.13
2018-02-21T02:49:48.698Z,82.43
2018-02-21T02:52:16.953Z,78.27
2018-02-21T02:54:45.190Z,69.13
2018-02-21T02:57:14.226Z,70.30
2018-02-21T02:59:42.473Z,75.73
2018-02-21T03:02:11.489Z,75.07
2018-02-21T03:04:39.753Z,79.37
2018-02-21T03:07:08.002Z,76.60
2018-02-21T03:09:37.009Z,83.77
2018-02-21T03:12:05.650Z,71.33
2018-02-21T03:14:34.297Z,70.53
2018-02-21T03:17:03.309Z,73.70
2018-02-21T03:19:31.577Z,76.03
2018-02-21T03:21:59.833Z,75.27
2018-02-21T03:24:31.157Z,70.80
2018-02-21T03:26:59.422Z,71.17
2018-02-21T03:29:27.670Z,68.87
2018-02-21T03:31:55.917Z,69.43
2018-02-21T03:34:24.438Z,72.07
2018-02-21T03:36:52.691Z,75.03
2018-02-21T03:39:20.938Z,67.30
2018-02-21T03:41:49.980Z,71.70
2018-02-21T03:44:18.230Z,77.37
2018-02-21T03:46:47.237Z,70.60
2018-02-21T03:49:15.510Z,66.90
2018-02-21T03:51:43.749Z,70.90
2018-02-21T03:54:12.778Z,69.10
2018-02-21T03:56:41.391Z,72.73
2018-02-21T03:59:09.642Z,70.33
2018-02-21T04:01:38.149Z,64.87
2018-02-21T04:04:06.478Z,65.83
2018-02-21T04:06:35.502Z,71.83
2018-02-21T04:09:03.741Z,70.13
2018-02-21T04:11:32.018Z,72.60
2018-02-21T04:14:00.258Z,70.97
2018-02-21T04:16:28.694Z,66.80
2018-02-21T04:19:01.107Z,70.13
2018-02-21T04:21:29.353Z,75.50
2018-02-21T04:23:57.777Z,67.73
2018-02-21T04:26:26.051Z,71.57
2018-02-21T04:28:54.293Z,69.60
2018-02-21T04:31:22.549Z,75.10
2018-02-21T04:33:50.825Z,69.70
2018-02-21T04:36:19.073Z,71.17
2018-02-21T04:38:47.318Z,66.73
2018-02-21T04:41:16.092Z,68.77
2018-02-21T04:43:44.329Z,70.80
2018-02-21T04:46:12.578Z,73.30
2018-02-21T04:48:40.848Z,71.67
2018-02-21T04:51:09.093Z,68.10
2018-02-21T04:53:37.345Z,70.20
2018-02-21T04:56:13.366Z,68.60
2018-02-21T04:59:01.430Z,74.50
2018-02-21T05:01:29.754Z,73.50
2018-02-21T05:03:58.002Z,69.27
2018-02-21T05:06:27.018Z,75.17
2018-02-21T05:08:55.289Z,73.10
2018-02-21T05:11:23.537Z,74.80
2018-02-21T05:13:51.794Z,76.97
2018-02-21T05:16:20.058Z,76.10
2018-02-21T05:18:48.586Z,75.13
2018-02-21T05:21:17.602Z,73.53
2018-02-21T05:23:45.929Z,72.47
2018-02-21T05:26:14.169Z,75.93
2018-02-21T05:28:42.413Z,75.30
2018-02-21T05:31:11.446Z,72.87
2018-02-21T05:33:39.694Z,78.57
2018-02-21T05:36:08.102Z,69.20
2018-02-21T05:38:36.382Z,67.90
2018-02-21T05:41:04.626Z,73.77
2018-02-21T05:43:32.868Z,69.50
2018-02-21T05:46:01.468Z,74.27
2018-02-21T05:48:29.746Z,72.13
2018-02-21T05:50:58.770Z,65.90
2018-02-21T05:53:27.041Z,73.47
2018-02-21T05:55:55.281Z,78.27
2018-02-21T05:58:23.527Z,81.97
2018-02-21T06:00:51.793Z,79.10
2018-02-21T06:03:20.055Z,81.93
2018-02-21T06:05:48.298Z,75.10
2018-02-21T06:08:16.842Z,71.67
2018-02-21T06:10:45.094Z,77.90
2018-02-21T06:13:13.346Z,76.97
2018-02-21T06:15:41.618Z,72.23
2018-02-21T06:18:10.631Z,86.40
2018-02-21T06:20:39.298Z,78.00
2018-02-21T06:23:08.329Z,76.07
2018-02-21T06:25:36.582Z,75.00
2018-02-21T06:28:04.833Z,70.77
2018-02-21T06:30:33.465Z,77.47
2018-02-21T06:33:01.706Z,71.57
2018-02-21T06:35:29.950Z,74.63
2018-02-21T06:37:58.223Z,73.30
2018-02-21T06:40:26.470Z,64.20
2018-02-21T06:42:54.721Z,74.93
2018-02-21T06:45:23.018Z,72.90
2018-02-21T06:47:51.262Z,78.77
2018-02-21T06:50:19.524Z,82.40
2018-02-21T06:52:47.841Z,79.70
2018-02-21T06:55:16.100Z,81.47
2018-02-21T06:57:44.341Z,73.63
2018-02-21T07:00:12.616Z,76.23
2018-02-21T07:02:40.857Z,77.77
2018-02-21T07:05:09.102Z,75.00
2018-02-21T07:07:37.369Z,80.40
2018-02-21T07:10:05.630Z,83.17
2018-02-21T07:12:33.869Z,75.53
2018-02-21T07:15:02.455Z,84.33
2018-02-21T07:17:30.694Z,74.80
2018-02-21T07:19:58.938Z,76.37
2018-02-21T07:22:27.565Z,78.30
2018-02-21T07:24:55.809Z,83.87
2018-02-21T07:27:24.053Z,79.43
2018-02-21T07:29:52.317Z,80.13
2018-02-21T07:32:20.574Z,78.63
2018-02-21T07:34:48.818Z,80.40
2018-02-21T07:37:18.165Z,82.40
2018-02-21T07:39:46.415Z,85.10
2018-02-21T07:42:14.671Z,95.57
2018-02-21T07:44:42.942Z,69.47
2018-02-21T07:47:11.194Z,83.57
2018-02-21T07:49:39.445Z,78.47
2018-02-21T07:52:07.710Z,76.00
2018-02-21T07:54:35.954Z,74.50
2018-02-21T07:57:04.198Z,81.63
2018-02-21T07:59:33.277Z,81.57
2018-02-21T08:02:01.527Z,79.93
2018-02-21T08:04:29.769Z,75.70
2018-02-21T08:06:58.800Z,68.90
2018-02-21T08:09:27.049Z,68.83
2018-02-21T08:11:56.213Z,66.17
2018-02-21T08:14:24.467Z,62.13
2018-02-21T08:16:52.726Z,69.10
2018-02-21T08:19:20.982Z,66.47
2018-02-21T08:21:49.614Z,71.30
2018-02-21T08:24:17.956Z,64.40
2018-02-21T08:26:46.965Z,77.33
2018-02-21T08:29:15.345Z,69.73
2018-02-21T08:31:43.589Z,65.80
2018-02-21T08:34:12.038Z,65.63
2018-02-21T08:36:40.310Z,77.83
2018-02-21T08:39:08.563Z,66.97
2018-02-21T08:41:36.810Z,60.50
2018-02-21T08:44:05.330Z,67.10
2018-02-21T08:46:33.579Z,67.43
2018-02-21T08:49:01.817Z,56.73
2018-02-21T08:51:30.095Z,62.40
2018-02-21T08:53:58.333Z,57.17
2018-02-21T08:56:26.581Z,52.40
2018-02-21T08:58:54.862Z,57.77
2018-02-21T09:01:23.100Z,57.97
2018-02-21T09:03:52.114Z,59.70
2018-02-21T09:06:20.477Z,61.90
2018-02-21T09:08:48.725Z,56.50
2018-02-21T09:11:17.009Z,55.80
2018-02-21T09:13:45.261Z,53.07
2018-02-21T09:16:13.502Z,52.60
2018-02-21T09:18:41.750Z,55.40
2018-02-21T09:21:10.028Z,64.60
2018-02-21T09:23:38.273Z,60.03
2018-02-21T09:26:06.813Z,55.50
2018-02-21T09:28:36.181Z,51.37
2018-02-21T09:31:04.434Z,56.50
2018-02-21T09:33:32.690Z,53.70
2018-02-21T09:36:00.961Z,56.87
2018-02-21T09:38:29.210Z,51.60
2018-02-21T09:40:57.454Z,52.17
2018-02-21T09:43:25.721Z,53.10
2018-02-21T09:45:53.970Z,56.13
2018-02-21T09:48:22.218Z,45.67
2018-02-21T09:50:51.457Z,51.73
2018-02-21T09:53:19.701Z,51.73
2018-02-21T09:55:47.952Z,45.27
2018-02-21T09:58:16.398Z,39.90
2018-02-21T10:00:44.637Z,44.93
2018-02-21T10:03:12.886Z,42.03
2018-02-21T10:05:41.150Z,53.40
2018-02-21T10:08:09.402Z,53.80
2018-02-21T10:10:37.642Z,51.57
2018-02-21T10:13:07.294Z,45.10
2018-02-21T10:15:35.542Z,44.37
2018-02-21T10:18:03.793Z,47.50
2018-02-21T10:20:32.821Z,47.60
2018-02-21T10:23:01.069Z,47.53
2018-02-21T10:25:30.083Z,42.97
2018-02-21T10:27:58.469Z,43.47
2018-02-21T10:30:26.718Z,48.20
2018-02-21T10:32:54.966Z,44.70
2018-02-21T10:35:23.630Z,41.80
2018-02-21T10:37:51.881Z,47.57
2018-02-21T10:40:20.124Z,40.00
2018-02-21T10:42:48.397Z,40.63
2018-02-21T10:45:16.650Z,35.73
2018-02-21T10:47:44.898Z,40.90
2018-02-21T10:50:13.270Z,38.10
2018-02-21T10:52:41.521Z,36.90
2018-02-21T10:55:09.770Z,39.43
2018-02-21T10:57:38.430Z,39.83
2018-02-21T11:00:06.682Z,38.37
2018-02-21T11:02:34.938Z,37.47
2018-02-21T11:05:03.214Z,39.43
2018-02-21T11:07:32.234Z,34.03
2018-02-21T11:10:00.490Z,41.40
2018-02-21T11:12:28.758Z,46.57
2018-02-21T11:14:57.016Z,36.07
2018-02-21T11:17:25.281Z,39.87
2018-02-21T11:19:53.848Z,42.37
2018-02-21T11:22:22.129Z,40.60
2018-02-21T11:24:50.408Z,39.07
2018-02-21T11:27:18.655Z,43.17
2018-02-21T11:29:47.410Z,43.97
2018-02-21T11:32:15.646Z,45.17
2018-02-21T11:34:43.921Z,37.00
2018-02-21T11:37:12.169Z,40.87
2018-02-21T11:39:40.422Z,42.03
2018-02-21T11:42:08.959Z,41.23
2018-02-21T11:44:37.209Z,39.93
2018-02-21T11:47:05.453Z,37.27
2018-02-21T11:49:33.734Z,37.03
2018-02-21T11:52:02.754Z,40.13
2018-02-21T11:54:31.029Z,45.50
2018-02-21T11:56:59.309Z,37.07
2018-02-21T11:59:27.562Z,38.07
2018-02-21T12:01:55.819Z,41.20
2018-02-21T12:04:24.137Z,39.07
2018-02-21T12:06:52.390Z,38.20
2018-02-21T12:09:21.410Z,38.03
2018-02-21T12:11:49.677Z,40.03
2018-02-21T12:14:17.951Z,37.30
2018-02-21T12:16:46.282Z,38.93
2018-02-21T12:19:14.998Z,38.20
2018-02-21T12:21:57.461Z,36.63
2018-02-21T12:24:29.213Z,42.67
2018-02-21T12:26:59.434Z,39.80
2018-02-21T12:29:27.759Z,34.60
2018-02-21T12:31:57.995Z,33.80
2018-02-21T12:34:26.248Z,35.10
2018-02-21T12:36:54.501Z,35.10
2018-02-21T12:39:36.850Z,38.23
2018-02-21T12:42:06.173Z,32.50
2018-02-21T12:44:34.426Z,42.80
2018-02-21T12:47:03.165Z,35.93
2018-02-21T12:49:31.440Z,35.60
2018-02-21T12:51:59.686Z,32.90
2018-02-21T12:54:28.143Z,33.77
2018-02-21T12:56:57.477Z,31.90
2018-02-21T12:59:27.076Z,36.87
2018-02-21T13:01:57.903Z,38.23
2018-02-21T13:04:26.957Z,33.47
2018-02-21T13:06:55.890Z,32.70
2018-02-21T13:09:24.171Z,28.63
2018-02-21T13:11:53.582Z,30.03
2018-02-21T13:14:22.580Z,33.60
2018-02-21T13:16:50.926Z,36.43
2018-02-21T13:19:19.950Z,32.47
2018-02-21T13:21:48.542Z,38.40
2018-02-21T13:24:21.609Z,30.70
2018-02-21T13:26:51.507Z,31.43
2018-02-21T13:29:20.790Z,34.27
2018-02-21T13:31:52.369Z,32.73
2018-02-21T13:34:23.390Z,32.27
2018-02-21T13:36:53.694Z,28.23
2018-02-21T13:39:24.218Z,34.23
2018-02-21T13:41:52.511Z,34.53
2018-02-21T13:44:21.701Z,30.10
2018-02-21T13:46:49.958Z,32.00
2018-02-21T13:49:18.216Z,31.77
2018-02-21T13:51:46.464Z,31.90
2018-02-21T13:54:17.006Z,30.70
2018-02-21T13:56:45.362Z,38.27
2018-02-21T13:59:14.579Z,33.53
2018-02-21T14:01:44.000Z,30.93
2018-02-21T14:04:14.706Z,39.10
2018-02-21T14:06:44.958Z,34.27
2018-02-21T14:09:14.644Z,34.30
2018-02-21T14:11:43.817Z,34.50
2018-02-21T14:14:13.621Z,34.63
2018-02-21T14:16:41.962Z,32.40
2018-02-21T14:19:10.378Z,37.30
2018-02-21T14:21:38.942Z,34.77
2018-02-21T14:24:07.234Z,36.90
2018-02-21T14:26:35.647Z,36.53
2018-02-21T14:29:04.734Z,40.63
2018-02-21T14:31:33.030Z,41.57
2018-02-21T14:34:02.606Z,49.83
2018-02-21T14:36:30.881Z,40.57
2018-02-21T14:38:59.372Z,40.40
2018-02-21T14:41:27.618Z,33.30
2018-02-21T14:43:57.426Z,36.50
2018-02-21T14:46:25.678Z,36.93
2018-02-21T14:48:53.930Z,37.60
2018-02-21T14:51:22.201Z,39.20
2018-02-21T14:53:52.405Z,52.67
2018-02-21T14:56:20.667Z,36.50
2018-02-21T14:58:49.882Z,36.63
2018-02-21T15:01:18.144Z,36.43
2018-02-21T15:03:46.538Z,39.77
2018-02-21T15:06:14.990Z,49.00
2018-02-21T15:08:43.305Z,45.57
2018-02-21T15:11:11.560Z,43.73
2018-02-21T15:13:39.834Z,42.00
2018-02-21T15:16:08.161Z,43.83
2018-02-21T15:18:37.209Z,39.50
2018-02-21T15:21:05.690Z,42.60
2018-02-21T15:23:33.933Z,38.07
2018-02-21T15:26:04.414Z,41.43
2018-02-21T15:28:32.869Z,41.23
2018-02-21T15:31:02.094Z,36.40
2018-02-21T15:33:30.351Z,38.57
2018-02-21T15:35:58.750Z,34.83
2018-02-21T15:38:27.001Z,40.50
2018-02-21T15:40:55.258Z,37.30
2018-02-21T15:43:23.530Z,37.37
2018-02-21T15:45:51.788Z,37.33
2018-02-21T15:48:20.037Z,35.50
2018-02-21T15:50:48.595Z,35.70
2018-02-21T15:53:16.838Z,35.27
2018-02-21T15:55:45.099Z,39.27
2018-02-21T15:58:14.622Z,35.57
2018-02-21T16:00:45.105Z,35.63
2018-02-21T16:03:13.360Z,45.07
2018-02-21T16:05:41.633Z,34.00
2018-02-21T16:08:09.921Z,53.53
2018-02-21T16:10:38.305Z,36.30
2018-02-21T16:13:07.185Z,32.67
2018-02-21T16:15:37.710Z,35.87
2018-02-21T16:18:05.991Z,42.37
2018-02-21T16:20:34.305Z,33.33
2018-02-21T16:23:03.333Z,33.73
2018-02-21T16:25:31.581Z,43.73
2018-02-21T16:28:00.068Z,34.47
2018-02-21T16:30:29.113Z,37.73
2018-02-21T16:32:57.350Z,37.40
2018-02-21T16:35:26.167Z,37.60
2018-02-21T16:37:54.467Z,39.97
2018-02-21T16:40:22.846Z,40.23
2018-02-21T16:42:51.221Z,41.00
2018-02-21T16:45:25.328Z,42.00
2018-02-21T16:47:53.602Z,45.80
2018-02-21T16:50:21.880Z,41.13
2018-02-21T16:52:50.139Z,41.17
2018-02-21T16:55:18.722Z,40.77
2018-02-21T16:57:46.966Z,38.03
2018-02-21T17:00:15.259Z,41.27
2018-02-21T17:02:43.846Z,50.90
2018-02-21T17:05:12.089Z,40.60
2018-02-21T17:07:40.343Z,42.77
2018-02-21T17:10:10.891Z,49.30
2018-02-21T17:12:39.154Z,42.50
2018-02-21T17:15:07.396Z,43.10
2018-02-21T17:17:36.102Z,47.17
2018-02-21T17:20:04.594Z,43.40
2018-02-21T17:22:32.846Z,50.87
2018-02-21T17:25:01.128Z,46.23
2018-02-21T17:27:29.370Z,43.10
2018-02-21T17:29:57.613Z,44.50
2018-02-21T17:32:28.050Z,41.83
2018-02-21T17:34:57.061Z,43.03
2018-02-21T17:37:27.233Z,41.97
2018-02-21T17:39:55.594Z,46.13
2018-02-21T17:42:23.850Z,46.00
2018-02-21T17:44:52.102Z,46.53
2018-02-21T17:47:22.658Z,39.53
2018-02-21T17:49:50.910Z,44.97
2018-02-21T17:52:19.153Z,41.23
2018-02-21T17:54:47.470Z,42.53
2018-02-21T17:57:16.487Z,41.90
2018-02-21T17:59:44.805Z,43.80
2018-02-21T18:02:13.685Z,45.17
2018-02-21T18:04:41.922Z,45.10
2018-02-21T18:07:16.149Z,40.50
2018-02-21T18:09:44.397Z,42.93
2018-02-21T18:12:12.846Z,47.97
2018-02-21T18:14:41.192Z,43.47
2018-02-21T18:17:09.423Z,40.90
2018-02-21T18:19:39.826Z,41.83
2018-02-21T18:22:08.480Z,42.37
2018-02-21T18:24:36.890Z,40.73
2018-02-21T18:27:05.133Z,43.33
2018-02-21T18:29:33.725Z,45.27
2018-02-21T18:32:01.977Z,41.13
2018-02-21T18:34:30.241Z,43.60
2018-02-21T18:36:58.841Z,40.70
2018-02-21T18:39:27.093Z,44.23
2018-02-21T18:41:55.736Z,43.43
2018-02-21T18:44:24.325Z,43.90
2018-02-21T18:46:54.810Z,42.63
2018-02-21T18:49:23.806Z,45.33
2018-02-21T18:51:52.082Z,41.67
2018-02-21T18:54:20.325Z,44.13
2018-02-21T18:56:49.342Z,42.30
2018-02-21T18:59:17.616Z,41.77
2018-02-21T19:01:47.814Z,42.13
2018-02-21T19:04:16.489Z,38.90
2018-02-21T19:06:45.245Z,39.40
2018-02-21T19:09:13.495Z,45.20
2018-02-21T19:11:41.933Z,40.97
2018-02-21T19:14:11.285Z,37.20
2018-02-21T19:16:40.889Z,41.13
2018-02-21T19:19:11.061Z,41.33
2018-02-21T19:21:39.636Z,38.83
2018-02-21T19:24:07.894Z,42.37
2018-02-21T19:26:36.205Z,53.23
2018-02-21T19:29:04.770Z,38.00
2018-02-21T19:31:34.194Z,43.67
2018-02-21T19:34:03.486Z,41.57
2018-02-21T19:36:32.812Z,39.90
2018-02-21T19:39:03.015Z,33.67
2018-02-21T19:41:31.405Z,44.53
2018-02-21T19:44:00.370Z,35.57
2018-02-21T19:46:28.764Z,33.30
2018-02-21T19:48:58.067Z,32.67
2018-02-21T19:51:26.826Z,33.17
2018-02-21T19:53:55.121Z,30.90
2018-02-21T19:56:24.594Z,30.77
2018-02-21T19:58:54.094Z,31.73
2018-02-21T20:01:24.258Z,29.97
2018-02-21T20:03:52.637Z,31.10
2018-02-21T20:06:21.057Z,31.20
2018-02-21T20:08:49.393Z,32.60
2018-02-21T20:11:17.818Z,28.53
2018-02-21T20:13:47.159Z,28.07
2018-02-21T20:16:15.482Z,30.97
2018-02-21T20:18:44.498Z,29.10
2018-02-21T20:21:12.777Z,30.47
2018-02-21T20:23:41.022Z,27.63
2018-02-21T20:26:13.914Z,32.10
2018-02-21T20:28:42.938Z,31.23
2018-02-21T20:31:11.280Z,28.13
2018-02-21T20:33:41.681Z,29.83
2018-02-21T20:36:09.922Z,31.13
2018-02-21T20:38:39.786Z,28.20
2018-02-21T20:41:10.048Z,27.27
2018-02-21T20:43:38.389Z,29.23
2018-02-21T20:46:06.761Z,33.20
2018-02-21T20:48:35.030Z,28.20
2018-02-21T20:51:03.657Z,39.77
2018-02-21T20:53:32.830Z,33.87
2018-02-21T20:56:01.585Z,31.40
2018-02-21T20:58:29.834Z,30.70
2018-02-21T21:00:58.281Z,26.50
2018-02-21T21:03:28.513Z,28.43
2018-02-21T21:05:57.524Z,28.13
2018-02-21T21:08:25.861Z,27.90
2018-02-21T21:10:54.621Z,24.30
2018-02-21T21:13:22.879Z,28.40
2018-02-21T21:15:51.121Z,34.70
2018-02-21T21:18:19.637Z,26.50
2018-02-21T21:20:47.878Z,25.97
2018-02-21T21:23:16.122Z,28.07
2018-02-21T21:25:44.390Z,28.57
2018-02-21T21:28:12.646Z,32.27
2018-02-21T21:30:40.894Z,28.20
2018-02-21T21:33:09.173Z,30.53
2018-02-21T21:35:38.650Z,28.97
2018-02-21T21:38:07.025Z,28.00
2018-02-21T21:40:35.505Z,22.73
2018-02-21T21:43:03.755Z,27.77
2018-02-21T21:45:32.014Z,23.87
2018-02-21T21:48:00.298Z,26.93
2018-02-21T21:50:28.546Z,27.87
2018-02-21T21:52:56.789Z,28.57
2018-02-21T21:55:26.046Z,29.93
2018-02-21T21:57:54.366Z,31.20
2018-02-21T22:00:22.614Z,30.33
2018-02-21T22:02:50.953Z,30.30
2018-02-21T22:05:19.198Z,30.20
2018-02-21T22:07:47.467Z,28.30
2018-02-21T22:10:15.725Z,24.40
2018-02-21T22:12:44.026Z,26.60
2018-02-21T22:15:12.409Z,25.53
2018-02-21T22:17:40.686Z,25.77
2018-02-21T22:20:08.944Z,22.30
2018-02-21T22:22:37.237Z,25.33
2018-02-21T22:25:06.011Z,25.73
2018-02-21T22:27:34.306Z,26.77
2018-02-21T22:30:02.554Z,27.40
2018-02-21T22:32:30.830Z,27.07
2018-02-21T22:35:00.256Z,26.90
2018-02-21T22:37:28.494Z,25.43
2018-02-21T22:39:56.770Z,27.07
2018-02-21T22:42:25.018Z,24.70
2018-02-21T22:44:53.262Z,23.37
2018-02-21T22:47:22.941Z,24.80
2018-02-21T22:49:51.188Z,26.77
2018-02-21T22:52:19.429Z,27.83
2018-02-21T22:54:47.737Z,24.57
2018-02-21T22:57:15.982Z,24.30
2018-02-21T22:59:44.457Z,24.63
2018-02-21T23:02:12.730Z,25.40
2018-02-21T23:04:41.085Z,23.20
2018-02-21T23:07:09.338Z,24.97
2018-02-21T23:09:37.673Z,23.97
2018-02-21T23:12:06.054Z,26.53
2018-02-21T23:14:34.426Z,26.07
2018-02-21T23:17:02.826Z,24.53
2018-02-21T23:19:31.834Z,21.20
2018-02-21T23:22:00.861Z,25.50
2018-02-21T23:24:29.206Z,22.07
2018-02-21T23:26:58.229Z,29.80
2018-02-21T23:29:26.489Z,27.60
2018-02-21T23:31:54.994Z,24.60
2018-02-21T23:34:23.242Z,23.70
2018-02-21T23:36:51.986Z,26.60
2018-02-21T23:39:20.401Z,21.27
2018-02-21T23:41:49.430Z,25.27
2018-02-21T23:44:17.731Z,28.77
2018-02-21T23:46:49.226Z,25.60
2018-02-21T23:49:18.249Z,25.60
2018-02-21T23:51:46.501Z,28.37
2018-02-21T23:54:15.055Z,23.97
2018-02-21T23:56:43.262Z,21.40
2018-02-21T23:59:11.702Z,28.20
